CheckWX is a tool to help pilots better visualize weather data.  It is not intended as a substitute for an official pre-flight weather briefing.

11:59:01 UTC

KEGE METAR
Eagle County Regional Airport
Eagle, Colorado, USA
Current

1 hour ago

KEGE 281056Z AUTO 13003KT 10SM CLR 08/06 A3033 RMK AO2 SLP231 T00780061 PNO $
Observed
May-28 @ 10:56 UTC
Wind
  • 130° at 3 KTS
Visibility
Flight Rules
VFR
Cloud Levels
  • Clear skies
Temperature
C / 46°F
Dewpoint
C / 43°F
Humidity
87%
Altimeter
30.33" Hg
Pressure
1027.12 hPa
Previous

2 hours ago

KEGE 280956Z AUTO 12005KT 10SM CLR 08/07 A3031 RMK AO2 SLP227 T00780067 PNO $
Observed
May-28 @ 09:56 UTC
Wind
  • 120° at 5 KTS
Visibility
Flight Rules
VFR
Cloud Levels
  • Clear skies
Temperature
C / 46°F
Dewpoint
C / 45°F
Humidity
93%
Altimeter
30.31" Hg
Pressure
1026.42 hPa
Previous

3 hours ago

KEGE 280856Z AUTO 12006KT 10SM CLR 09/08 A3030 RMK AO2 SLP212 6//// T00940083 51004 PNO $
Observed
May-28 @ 08:56 UTC
Wind
  • 120° at 6 KTS
Visibility
Flight Rules
VFR
Cloud Levels
  • Clear skies
Temperature
C / 48°F
Dewpoint
C / 46°F
Humidity
94%
Altimeter
30.3" Hg
Pressure
1026.12 hPa